createdAt,value
2018-02-05T00:00:24.767Z,1.16
2018-02-05T00:01:24.771Z,1.16
2018-02-05T00:02:24.803Z,1.16
2018-02-05T00:03:24.734Z,1.2
2018-02-05T00:04:24.710Z,1.22
2018-02-05T00:05:24.760Z,1.2
2018-02-05T00:06:24.755Z,1.23
2018-02-05T00:07:24.793Z,1.26
2018-02-05T00:08:24.779Z,1.15
2018-02-05T00:09:24.845Z,1.17
2018-02-05T00:10:24.789Z,1.19
2018-02-05T00:11:24.749Z,1.2
2018-02-05T00:12:24.801Z,1.2
2018-02-05T00:13:24.773Z,1.22
2018-02-05T00:14:24.686Z,1.24
2018-02-05T00:15:24.829Z,1.22
2018-02-05T00:16:24.803Z,1.23
2018-02-05T00:17:24.768Z,1.24
2018-02-05T00:18:24.782Z,1.27
2018-02-05T00:19:24.806Z,1.27
2018-02-05T00:20:24.796Z,1.31
2018-02-05T00:21:24.738Z,1.33
2018-02-05T00:22:24.735Z,1.33
2018-02-05T00:23:24.785Z,1.34
2018-02-05T00:24:24.770Z,1.36
2018-02-05T00:25:24.799Z,1.38
2018-02-05T00:26:25.037Z,1.36
2018-02-05T00:27:24.782Z,1.38
2018-02-05T00:28:24.774Z,1.4
2018-02-05T00:29:24.679Z,1.43
2018-02-05T00:30:24.701Z,1.44
2018-02-05T00:31:24.740Z,1.47
2018-02-05T00:32:24.771Z,1.47
2018-02-05T00:33:24.662Z,1.5
2018-02-05T00:34:24.760Z,1.47
2018-02-05T00:35:24.755Z,1.47
2018-02-05T00:36:24.708Z,1.47
2018-02-05T00:37:24.711Z,1.44
2018-02-05T00:38:24.718Z,1.43
2018-02-05T00:39:24.749Z,1.44
2018-02-05T00:40:24.685Z,1.45
2018-02-05T00:41:24.709Z,1.44
2018-02-05T00:42:24.666Z,1.44
2018-02-05T00:43:24.793Z,1.47
2018-02-05T00:44:24.717Z,1.47
2018-02-05T00:45:24.669Z,1.48
2018-02-05T00:46:24.673Z,1.5
2018-02-05T00:47:24.761Z,1.45
2018-02-05T00:48:24.635Z,1.41
2018-02-05T00:49:24.780Z,1.45
2018-02-05T00:50:24.713Z,1.45
2018-02-05T00:51:24.731Z,1.45
2018-02-05T00:52:24.649Z,1.47
2018-02-05T00:53:24.607Z,1.5
2018-02-05T00:54:24.671Z,1.51
2018-02-05T00:55:24.651Z,1.5
2018-02-05T00:56:24.685Z,1.51
2018-02-05T00:57:24.704Z,1.5
2018-02-05T00:58:24.680Z,1.51
2018-02-05T00:59:24.718Z,1.54
2018-02-05T01:00:24.688Z,1.54
2018-02-05T01:01:24.656Z,1.54
2018-02-05T01:02:24.595Z,1.55
2018-02-05T01:03:24.608Z,1.55
2018-02-05T01:04:24.572Z,1.54
2018-02-05T01:05:24.621Z,1.55
2018-02-05T01:06:24.654Z,1.57
2018-02-05T01:07:24.619Z,1.58
2018-02-05T01:08:24.614Z,1.57
2018-02-05T01:09:24.642Z,1.58
2018-02-05T01:10:24.567Z,1.59
2018-02-05T01:11:24.643Z,1.61
2018-02-05T01:12:24.571Z,1.64
2018-02-05T01:13:24.587Z,1.62
2018-02-05T01:14:24.634Z,1.59
2018-02-05T01:15:24.636Z,1.61
2018-02-05T01:16:24.610Z,1.62
2018-02-05T01:17:24.637Z,1.61
2018-02-05T01:18:24.654Z,1.59
2018-02-05T01:19:24.662Z,1.59
2018-02-05T01:20:24.668Z,1.59
2018-02-05T01:21:24.551Z,1.61
2018-02-05T01:22:24.555Z,1.61
2018-02-05T01:23:24.613Z,1.57
2018-02-05T01:24:24.546Z,1.58
2018-02-05T01:25:24.615Z,1.58
2018-02-05T01:26:24.542Z,1.57
2018-02-05T01:27:24.591Z,1.57
2018-02-05T01:28:24.614Z,1.58
2018-02-05T01:29:24.569Z,1.58
2018-02-05T01:30:24.590Z,1.57
2018-02-05T01:31:24.584Z,1.57
2018-02-05T01:32:24.524Z,1.54
2018-02-05T01:35:24.543Z,1.53
2018-02-05T01:36:24.512Z,1.51
2018-02-05T01:37:24.475Z,1.48
2018-02-05T01:38:24.528Z,1.48
2018-02-05T01:39:24.633Z,1.47
2018-02-05T01:40:24.512Z,1.47
2018-02-05T01:41:24.505Z,1.44
2018-02-05T01:42:24.581Z,1.43
2018-02-05T01:43:24.481Z,1.41
2018-02-05T01:44:24.554Z,1.41
2018-02-05T01:45:24.425Z,1.38
2018-02-05T01:46:24.486Z,1.38
2018-02-05T01:47:24.480Z,1.36
2018-02-05T01:48:24.540Z,1.34
2018-02-05T01:49:24.488Z,1.34
2018-02-05T01:50:24.481Z,1.34
2018-02-05T01:51:24.595Z,1.31
2018-02-05T01:52:24.497Z,1.31
2018-02-05T01:53:24.460Z,1.28
2018-02-05T01:54:24.518Z,1.28
2018-02-05T01:55:24.652Z,1.24
2018-02-05T01:56:24.461Z,1.23
2018-02-05T01:57:24.531Z,1.2
2018-02-05T01:58:24.511Z,1.2
2018-02-05T01:59:24.570Z,1.22
2018-02-05T02:00:24.463Z,1.17
2018-02-05T02:01:24.533Z,1.19
2018-02-05T02:02:24.543Z,1.17
2018-02-05T02:03:24.550Z,1.16
2018-02-05T02:04:24.567Z,1.13
2018-02-05T02:05:24.557Z,1.13
2018-02-05T02:06:24.582Z,1.11
2018-02-05T02:07:24.578Z,1.11
2018-02-05T02:08:24.610Z,1.09
2018-02-05T02:09:24.592Z,1.09
2018-02-05T02:10:24.546Z,1.07
2018-02-05T02:11:24.541Z,1.06
2018-02-05T02:12:24.518Z,1.04
2018-02-05T02:13:24.478Z,1.06
2018-02-05T02:14:24.578Z,1.02
2018-02-05T02:15:24.584Z,1.03
2018-02-05T02:16:24.479Z,1.04
2018-02-05T02:17:24.531Z,1.04
2018-02-05T02:18:24.573Z,1.02
2018-02-05T02:19:24.922Z,1.02
2018-02-05T02:20:24.655Z,0.99
2018-02-05T02:23:24.572Z,0.95
2018-02-05T02:24:24.611Z,0.95
2018-02-05T02:25:24.575Z,0.93
2018-02-05T02:26:24.512Z,0.98
2018-02-05T02:27:24.470Z,0.93
2018-02-05T02:28:24.484Z,0.95
2018-02-05T02:29:24.513Z,0.92
2018-02-05T02:30:24.577Z,0.91
2018-02-05T02:31:24.539Z,0.92
2018-02-05T02:32:24.465Z,0.91
2018-02-05T02:33:25.371Z,0.89
2018-02-05T02:34:25.327Z,0.89
2018-02-05T02:35:25.333Z,0.89
2018-02-05T02:36:25.293Z,0.88
2018-02-05T02:37:25.389Z,0.86
2018-02-05T02:38:25.311Z,0.86
2018-02-05T02:39:25.353Z,0.85
2018-02-05T02:40:25.426Z,0.85
2018-02-05T02:41:25.376Z,0.83
2018-02-05T02:42:25.392Z,0.82
2018-02-05T02:43:25.269Z,0.83
2018-02-05T02:44:25.319Z,0.82
2018-02-05T02:45:25.339Z,0.82
2018-02-05T02:46:25.390Z,0.82
2018-02-05T02:47:25.387Z,0.81
2018-02-05T02:48:25.324Z,0.81
2018-02-05T02:50:25.371Z,0.81
2018-02-05T02:51:25.313Z,0.78
2018-02-05T02:52:25.399Z,0.76
2018-02-05T02:53:25.351Z,0.76
2018-02-05T02:54:25.378Z,0.79
2018-02-05T02:55:25.353Z,0.78
2018-02-05T02:56:25.331Z,0.78
2018-02-05T02:57:25.382Z,0.75
2018-02-05T02:58:25.297Z,0.71
2018-02-05T02:59:25.296Z,0.72
2018-02-05T03:00:25.334Z,0.74
2018-02-05T03:01:25.321Z,0.72
2018-02-05T03:02:25.363Z,0.72
2018-02-05T03:03:25.277Z,0.71
2018-02-05T03:04:25.250Z,0.71
2018-02-05T03:05:25.303Z,0.72
2018-02-05T03:06:25.326Z,0.71
2018-02-05T03:07:25.337Z,0.71
2018-02-05T03:08:25.357Z,0.69
2018-02-05T03:09:25.286Z,0.69
2018-02-05T03:10:25.330Z,0.68
2018-02-05T03:11:25.304Z,0.69
2018-02-05T03:12:25.302Z,0.68
2018-02-05T03:13:25.274Z,0.69
2018-02-05T03:14:25.283Z,0.67
2018-02-05T03:15:25.336Z,0.65
2018-02-05T03:16:25.311Z,0.67
2018-02-05T03:17:25.315Z,0.65
2018-02-05T03:18:25.322Z,0.64
2018-02-05T03:19:25.328Z,0.64
2018-02-05T03:20:25.332Z,0.64
2018-02-05T03:21:25.396Z,0.65
2018-02-05T03:22:25.304Z,0.64
2018-02-05T03:23:25.290Z,0.63
2018-02-05T03:24:25.250Z,0.61
2018-02-05T03:25:25.305Z,0.61
2018-02-05T03:26:25.248Z,0.6
2018-02-05T03:27:25.343Z,0.61
2018-02-05T03:28:25.337Z,0.61
2018-02-05T03:29:25.293Z,0.64
2018-02-05T03:30:25.289Z,0.63
2018-02-05T03:31:25.391Z,0.61
2018-02-05T03:32:25.352Z,0.6
2018-02-05T03:33:25.381Z,0.63
2018-02-05T03:34:25.420Z,0.6
2018-02-05T03:35:25.385Z,0.57
2018-02-05T03:36:25.399Z,0.54
2018-02-05T03:37:25.427Z,0.58
2018-02-05T03:38:25.355Z,0.58
2018-02-05T03:39:25.359Z,0.54
2018-02-05T03:40:25.370Z,0.55
2018-02-05T03:41:25.363Z,0.54
2018-02-05T03:42:25.419Z,0.57
2018-02-05T03:43:25.381Z,0.55
2018-02-05T03:44:25.335Z,0.57
2018-02-05T03:45:25.445Z,0.55
2018-02-05T03:46:25.390Z,0.57
2018-02-05T03:47:25.313Z,0.57
2018-02-05T03:48:25.415Z,0.54
2018-02-05T03:49:25.376Z,0.53
2018-02-05T03:50:25.345Z,0.54
2018-02-05T03:51:25.425Z,0.54
2018-02-05T03:52:25.383Z,0.54
2018-02-05T03:53:25.346Z,0.54
2018-02-05T03:54:25.603Z,0.54
2018-02-05T03:55:25.373Z,0.55
2018-02-05T03:56:25.276Z,0.53
2018-02-05T03:57:25.421Z,0.54
2018-02-05T03:58:25.427Z,0.53
2018-02-05T03:59:25.402Z,0.53
2018-02-05T04:00:25.428Z,0.55
2018-02-05T04:01:25.306Z,0.55
2018-02-05T04:02:25.317Z,0.54
2018-02-05T04:03:25.371Z,0.53
2018-02-05T04:04:25.973Z,0.53
2018-02-05T04:05:25.499Z,0.54
2018-02-05T04:06:25.330Z,0.57
2018-02-05T04:07:25.284Z,0.55
2018-02-05T04:08:25.362Z,0.54
2018-02-05T04:09:25.427Z,0.54
2018-02-05T04:10:25.373Z,0.54
2018-02-05T04:11:25.427Z,0.54
2018-02-05T04:12:25.365Z,0.53
2018-02-05T04:13:25.350Z,0.57
2018-02-05T04:14:25.391Z,0.54
2018-02-05T04:15:25.385Z,0.57
2018-02-05T04:16:25.292Z,0.57
2018-02-05T04:17:25.516Z,0.58
2018-02-05T04:18:25.344Z,0.55
2018-02-05T04:19:25.365Z,0.55
2018-02-05T04:20:25.349Z,0.55
2018-02-05T04:21:25.391Z,0.6
2018-02-05T04:22:25.344Z,0.57
2018-02-05T04:23:25.323Z,0.58
2018-02-05T04:24:25.356Z,0.58
2018-02-05T04:25:25.379Z,0.58
2018-02-05T04:26:25.371Z,0.57
2018-02-05T04:27:25.393Z,0.57
2018-02-05T04:28:25.348Z,0.57
2018-02-05T04:29:25.321Z,0.58
2018-02-05T04:30:25.440Z,0.57
2018-02-05T04:31:25.349Z,0.58
2018-02-05T04:32:25.785Z,0.58
2018-02-05T04:33:25.367Z,0.58
2018-02-05T04:34:25.336Z,0.6
2018-02-05T04:35:25.365Z,0.57
2018-02-05T04:36:25.349Z,0.58
2018-02-05T04:37:25.371Z,0.57
2018-02-05T04:38:25.259Z,0.58
2018-02-05T04:39:25.357Z,0.6
2018-02-05T04:40:25.403Z,0.58
2018-02-05T04:41:25.348Z,0.6
2018-02-05T04:42:25.304Z,0.58
2018-02-05T04:43:25.345Z,0.6
2018-02-05T04:44:25.328Z,0.58
2018-02-05T04:45:25.326Z,0.58
2018-02-05T04:46:25.330Z,0.57
2018-02-05T04:47:25.280Z,0.58
2018-02-05T04:48:25.355Z,0.57
2018-02-05T04:49:25.324Z,0.58
2018-02-05T04:50:25.404Z,0.57
2018-02-05T04:51:25.380Z,0.57
2018-02-05T04:52:25.375Z,0.55
2018-02-05T04:53:25.338Z,0.57
2018-02-05T04:54:25.307Z,0.55
2018-02-05T04:55:25.277Z,0.57
2018-02-05T04:56:25.280Z,0.55
2018-02-05T04:57:25.336Z,0.57
2018-02-05T04:58:25.413Z,0.57
2018-02-05T04:59:25.566Z,0.54
2018-02-05T05:00:25.553Z,0.54
2018-02-05T05:01:25.359Z,0.55
2018-02-05T05:02:25.380Z,0.55
2018-02-05T05:03:25.333Z,0.55
2018-02-05T05:04:25.507Z,0.54
2018-02-05T05:05:24.527Z,0.53
2018-02-05T05:06:24.495Z,0.53
2018-02-05T05:07:24.554Z,0.53
2018-02-05T05:08:24.446Z,0.51
2018-02-05T05:09:24.552Z,0.5
2018-02-05T05:10:24.514Z,0.53
2018-02-05T05:11:24.768Z,0.48
2018-02-05T05:12:24.554Z,0.5
2018-02-05T05:13:24.488Z,0.5
2018-02-05T05:14:24.566Z,0.51
2018-02-05T05:15:24.572Z,0.5
2018-02-05T05:16:24.561Z,0.5
2018-02-05T05:17:24.518Z,0.5
2018-02-05T05:18:24.555Z,0.5
2018-02-05T05:19:24.523Z,0.51
2018-02-05T05:20:24.582Z,0.51
2018-02-05T05:21:24.562Z,0.51
2018-02-05T05:22:24.539Z,0.5
2018-02-05T05:23:24.540Z,0.48
2018-02-05T05:24:24.486Z,0.47
2018-02-05T05:25:24.483Z,0.5
2018-02-05T05:26:24.584Z,0.48
2018-02-05T05:27:24.604Z,0.48
2018-02-05T05:28:24.492Z,0.5
2018-02-05T05:29:24.491Z,0.47
2018-02-05T05:30:24.506Z,0.47
2018-02-05T05:31:24.478Z,0.47
2018-02-05T05:32:24.546Z,0.47
2018-02-05T05:33:24.568Z,0.46
2018-02-05T05:34:24.550Z,0.44
2018-02-05T05:35:24.674Z,0.46
2018-02-05T05:36:24.663Z,0.47
2018-02-05T05:37:24.741Z,0.46
2018-02-05T05:38:24.755Z,0.44
2018-02-05T05:39:24.621Z,0.41
2018-02-05T05:40:24.729Z,0.44
2018-02-05T05:41:24.704Z,0.47
2018-02-05T05:42:24.724Z,0.44
2018-02-05T05:43:24.809Z,0.43
2018-02-05T05:44:24.657Z,0.43
2018-02-05T05:45:24.686Z,0.41
2018-02-05T05:46:24.672Z,0.41
2018-02-05T05:47:24.712Z,0.41
2018-02-05T05:48:24.838Z,0.38
2018-02-05T05:49:24.729Z,0.38
2018-02-05T05:50:24.572Z,0.37
2018-02-05T05:51:24.656Z,0.38
2018-02-05T05:52:24.771Z,0.37
2018-02-05T05:53:24.733Z,0.36
2018-02-05T05:54:24.732Z,0.37
2018-02-05T05:55:24.591Z,0.36
2018-02-05T05:56:24.625Z,0.37
2018-02-05T05:57:24.693Z,0.36
2018-02-05T05:58:24.573Z,0.37
2018-02-05T05:59:24.591Z,0.36
2018-02-05T06:00:24.760Z,0.36
2018-02-05T06:01:24.780Z,0.34
2018-02-05T06:02:24.754Z,0.37
2018-02-05T06:03:24.706Z,0.33
2018-02-05T06:04:24.656Z,0.32
2018-02-05T06:05:24.680Z,0.33
2018-02-05T06:06:24.647Z,0.32
2018-02-05T06:07:24.487Z,0.3
2018-02-05T06:08:24.617Z,0.32
2018-02-05T06:09:24.580Z,0.29
2018-02-05T06:10:24.513Z,0.32
2018-02-05T06:11:24.658Z,0.32
2018-02-05T06:12:24.636Z,0.29
2018-02-05T06:13:24.512Z,0.3
2018-02-05T06:14:24.605Z,0.3
2018-02-05T06:15:24.523Z,0.3
2018-02-05T06:16:24.450Z,0.26
2018-02-05T06:17:24.767Z,0.25
2018-02-05T06:18:24.534Z,0.23
2018-02-05T06:19:24.483Z,0.23
2018-02-05T06:20:24.549Z,0.23
2018-02-05T06:21:24.615Z,0.23
2018-02-05T06:22:24.569Z,0.2
2018-02-05T06:23:24.543Z,0.19
2018-02-05T06:24:24.554Z,0.18
2018-02-05T06:25:24.561Z,0.16
2018-02-05T06:26:24.601Z,0.16
2018-02-05T06:27:24.557Z,0.15
2018-02-05T06:28:24.580Z,0.12
2018-02-05T06:29:24.533Z,0.12
2018-02-05T06:30:24.541Z,0.12
2018-02-05T06:31:24.574Z,0.1
2018-02-05T06:32:24.498Z,0.1
2018-02-05T06:33:24.552Z,0.1
2018-02-05T06:34:24.552Z,0.06
2018-02-05T06:35:24.537Z,0.09
2018-02-05T06:36:24.563Z,0.12
2018-02-05T06:37:24.655Z,0.09
2018-02-05T06:38:24.621Z,0.1
2018-02-05T06:39:24.651Z,0.08
2018-02-05T06:40:24.699Z,0.08
2018-02-05T06:41:24.672Z,0.06
2018-02-05T06:42:24.734Z,0.08
2018-02-05T06:43:24.715Z,0.05
2018-02-05T06:44:24.715Z,0.05
2018-02-05T06:45:24.713Z,0.06
2018-02-05T06:46:24.672Z,0.05
2018-02-05T06:50:24.675Z,0.15
2018-02-05T06:51:24.676Z,0.12
2018-02-05T06:52:24.757Z,0.09
2018-02-05T06:53:24.671Z,0.12
2018-02-05T06:54:24.716Z,0.1
2018-02-05T06:55:24.672Z,0.1
2018-02-05T06:56:24.703Z,0.12
2018-02-05T06:57:24.741Z,0.12
2018-02-05T06:58:24.831Z,0.08
2018-02-05T06:59:24.731Z,0.1
2018-02-05T07:00:24.684Z,0.08
2018-02-05T07:01:24.623Z,0.15
2018-02-05T07:02:24.670Z,0.12
2018-02-05T07:03:24.625Z,0.13
2018-02-05T07:04:24.766Z,0.1
2018-02-05T07:05:24.729Z,0.15
2018-02-05T07:06:24.699Z,0.09
2018-02-05T07:07:24.733Z,0.12
2018-02-05T07:08:24.659Z,0.12
2018-02-05T07:09:24.728Z,0.16
2018-02-05T07:10:24.644Z,0.16
2018-02-05T07:11:24.637Z,0.12
2018-02-05T07:12:24.587Z,0.15
2018-02-05T07:13:24.567Z,0.16
2018-02-05T07:14:24.609Z,0.13
2018-02-05T07:15:24.650Z,0.15
2018-02-05T07:16:24.693Z,0.16
2018-02-05T07:17:24.568Z,0.16
2018-02-05T07:18:24.612Z,0.18
2018-02-05T07:19:24.633Z,0.18
2018-02-05T07:20:24.664Z,0.16
2018-02-05T07:21:24.673Z,0.18
2018-02-05T07:22:24.654Z,0.22
2018-02-05T07:23:24.601Z,0.2
2018-02-05T07:24:24.608Z,0.23
2018-02-05T07:25:24.676Z,0.22
2018-02-05T07:26:24.758Z,0.25
2018-02-05T07:27:24.692Z,0.22
2018-02-05T07:28:24.672Z,0.23
2018-02-05T07:29:24.659Z,0.23
2018-02-05T07:30:24.562Z,0.26
2018-02-05T07:31:24.697Z,0.27
2018-02-05T07:32:24.620Z,0.26
2018-02-05T07:33:24.652Z,0.3
2018-02-05T07:34:24.633Z,0.29
2018-02-05T07:35:24.629Z,0.29
2018-02-05T07:36:24.629Z,0.29
2018-02-05T07:37:24.712Z,0.27
2018-02-05T07:38:24.711Z,0.33
2018-02-05T07:39:24.649Z,0.33
2018-02-05T07:40:24.655Z,0.32
2018-02-05T07:41:24.670Z,0.32
2018-02-05T07:42:24.700Z,0.32
2018-02-05T07:43:24.715Z,0.33
2018-02-05T07:44:24.783Z,0.34
2018-02-05T07:45:24.683Z,0.33
2018-02-05T07:46:24.695Z,0.36
2018-02-05T07:47:24.996Z,0.36
2018-02-05T07:48:25.073Z,0.34
2018-02-05T07:49:24.759Z,0.37
2018-02-05T07:50:24.720Z,0.36
2018-02-05T07:51:24.784Z,0.37
2018-02-05T07:52:24.753Z,0.38
2018-02-05T07:53:24.687Z,0.38
2018-02-05T07:54:24.678Z,0.37
2018-02-05T07:55:24.824Z,0.41
2018-02-05T07:56:24.648Z,0.37
2018-02-05T07:57:24.689Z,0.38
2018-02-05T07:58:24.721Z,0.38
2018-02-05T07:59:24.770Z,0.37
2018-02-05T08:00:24.751Z,0.4
2018-02-05T08:01:24.697Z,0.41
2018-02-05T08:02:24.698Z,0.4
2018-02-05T08:03:24.698Z,0.4
2018-02-05T08:04:24.686Z,0.4
2018-02-05T08:05:24.732Z,0.41
2018-02-05T08:06:24.722Z,0.44
2018-02-05T08:07:24.654Z,0.4
2018-02-05T08:08:24.778Z,0.44
2018-02-05T08:09:24.930Z,0.48
2018-02-05T08:10:25.186Z,0.47
2018-02-05T08:11:24.916Z,0.44
2018-02-05T08:12:24.914Z,0.51
2018-02-05T08:13:24.962Z,0.48
2018-02-05T08:14:25.214Z,0.48
2018-02-05T08:15:25.026Z,0.48
2018-02-05T08:16:24.892Z,0.48
2018-02-05T08:17:24.997Z,0.5
2018-02-05T08:18:24.960Z,0.53
2018-02-05T08:19:24.924Z,0.55
2018-02-05T08:20:24.896Z,0.54
2018-02-05T08:21:25.069Z,0.58
2018-02-05T08:22:24.924Z,0.55
2018-02-05T08:23:25.022Z,0.55
2018-02-05T08:24:24.990Z,0.55
2018-02-05T08:25:24.964Z,0.53
2018-02-05T08:26:24.989Z,0.53
2018-02-05T08:27:24.995Z,0.53
2018-02-05T08:28:24.967Z,0.51
2018-02-05T08:29:24.875Z,0.53
2018-02-05T08:30:24.968Z,0.51
2018-02-05T08:31:25.010Z,0.5
2018-02-05T08:32:24.902Z,0.53
2018-02-05T08:33:24.947Z,0.53
2018-02-05T08:34:24.972Z,0.54
2018-02-05T08:35:24.947Z,0.53
2018-02-05T08:36:25.042Z,0.55
2018-02-05T08:37:24.918Z,0.55
2018-02-05T08:38:25.125Z,0.57
2018-02-05T08:39:24.938Z,0.58
2018-02-05T08:40:24.895Z,0.58
2018-02-05T08:41:24.840Z,0.57
2018-02-05T08:42:24.807Z,0.58
2018-02-05T08:43:24.841Z,0.58
2018-02-05T08:44:24.842Z,0.61
2018-02-05T08:45:24.942Z,0.6
2018-02-05T08:46:24.832Z,0.63
2018-02-05T08:47:24.871Z,0.64
2018-02-05T08:48:24.854Z,0.63
2018-02-05T08:49:24.786Z,0.64
2018-02-05T08:50:24.921Z,0.65
2018-02-05T08:51:24.958Z,0.67
2018-02-05T08:52:24.845Z,0.71
2018-02-05T08:53:24.892Z,0.71
2018-02-05T08:54:24.839Z,0.72
2018-02-05T08:55:24.928Z,0.72
2018-02-05T08:56:25.039Z,0.72
2018-02-05T08:57:24.844Z,0.78
2018-02-05T08:58:24.876Z,0.78
2018-02-05T08:59:24.863Z,0.82
2018-02-05T09:00:24.902Z,0.82
2018-02-05T09:01:24.876Z,0.83
2018-02-05T09:02:24.982Z,0.88
2018-02-05T09:03:24.912Z,0.89
2018-02-05T09:04:24.934Z,0.91
2018-02-05T09:05:24.835Z,0.93
2018-02-05T09:06:24.966Z,0.93
2018-02-05T09:07:24.995Z,0.95
2018-02-05T09:08:24.869Z,0.96
2018-02-05T09:09:25.327Z,0.96
2018-02-05T09:10:25.343Z,0.99
2018-02-05T09:11:25.271Z,0.99
2018-02-05T09:12:25.223Z,1.03
2018-02-05T09:13:25.241Z,1.03
2018-02-05T09:14:25.417Z,1.04
2018-02-05T09:15:25.293Z,1.09
2018-02-05T09:16:25.314Z,1.11
2018-02-05T09:17:25.302Z,1.13
2018-02-05T09:18:25.361Z,1.19
2018-02-05T09:19:25.299Z,1.22
2018-02-05T09:20:25.358Z,1.26
2018-02-05T09:21:25.252Z,1.24
2018-02-05T09:22:25.306Z,1.26
2018-02-05T09:23:25.403Z,1.33
2018-02-05T09:24:25.593Z,1.33
2018-02-05T09:25:25.242Z,1.31
2018-02-05T09:26:25.240Z,1.36
2018-02-05T09:27:25.414Z,1.4
2018-02-05T09:28:25.377Z,1.44
2018-02-05T09:29:25.355Z,1.43
2018-02-05T09:30:25.296Z,1.44
2018-02-05T09:31:25.842Z,1.48
2018-02-05T09:32:25.313Z,1.5
2018-02-05T09:33:25.322Z,1.53
2018-02-05T09:34:25.273Z,1.55
2018-02-05T09:35:25.325Z,1.54
2018-02-05T09:36:25.299Z,1.55
2018-02-05T09:37:25.266Z,1.58
2018-02-05T09:38:25.230Z,1.57
2018-02-05T09:39:25.247Z,1.62
2018-02-05T09:40:25.269Z,1.62
2018-02-05T09:41:25.201Z,1.65
2018-02-05T09:42:25.161Z,1.72
2018-02-05T09:43:25.170Z,1.72
2018-02-05T09:44:25.183Z,1.75
2018-02-05T09:45:25.134Z,1.78
2018-02-05T09:46:25.170Z,1.76
2018-02-05T09:47:25.197Z,1.79
2018-02-05T09:48:25.164Z,1.79
2018-02-05T09:49:25.142Z,1.82
2018-02-05T09:50:25.116Z,1.79
2018-02-05T09:51:25.158Z,1.81
2018-02-05T09:52:25.140Z,1.82
2018-02-05T09:53:25.186Z,1.83
2018-02-05T09:54:25.178Z,1.86
2018-02-05T09:55:25.166Z,1.89
2018-02-05T09:56:25.110Z,1.86
2018-02-05T09:57:25.201Z,1.9
2018-02-05T10:00:25.172Z,2.01
2018-02-05T10:01:25.146Z,2.06
2018-02-05T10:02:25.186Z,2.04
2018-02-05T10:03:26.865Z,2.06
2018-02-05T10:04:25.143Z,2.09
2018-02-05T10:05:25.095Z,2.03
2018-02-05T10:06:25.213Z,2
2018-02-05T10:07:25.137Z,2
2018-02-05T10:08:25.071Z,2.03
2018-02-05T10:09:25.214Z,2.1
2018-02-05T10:10:25.138Z,2.1
2018-02-05T10:11:25.476Z,2.09
2018-02-05T10:12:25.509Z,2.14
2018-02-05T10:13:25.371Z,2.18
2018-02-05T10:14:25.379Z,2.17
2018-02-05T10:15:25.477Z,2.24
2018-02-05T10:16:25.496Z,2.24
2018-02-05T10:17:25.364Z,2.27
2018-02-05T10:18:25.420Z,2.31
2018-02-05T10:19:25.451Z,2.34
2018-02-05T10:20:25.420Z,2.37
2018-02-05T10:21:25.349Z,2.38
2018-02-05T10:22:25.381Z,2.41
2018-02-05T10:23:25.655Z,2.43
2018-02-05T10:24:25.364Z,2.45
2018-02-05T10:25:25.390Z,2.45
2018-02-05T10:26:25.390Z,2.47
2018-02-05T10:27:25.386Z,2.47
2018-02-05T10:28:25.552Z,2.52
2018-02-05T10:29:25.347Z,2.56
2018-02-05T10:30:25.448Z,2.61
2018-02-05T10:31:25.435Z,2.64
2018-02-05T10:32:25.394Z,2.64
2018-02-05T10:33:25.431Z,2.64
2018-02-05T10:34:25.329Z,2.61
2018-02-05T10:35:25.414Z,2.65
2018-02-05T10:36:25.447Z,2.65
2018-02-05T10:37:25.429Z,2.65
2018-02-05T10:38:25.458Z,2.65
2018-02-05T10:39:25.701Z,2.71
2018-02-05T10:40:25.344Z,2.72
2018-02-05T10:41:24.678Z,2.76
2018-02-05T10:42:24.903Z,2.8
2018-02-05T10:43:24.482Z,2.86
2018-02-05T10:44:24.677Z,2.87
2018-02-05T10:45:24.558Z,2.87
2018-02-05T10:46:24.623Z,2.94
2018-02-05T10:47:24.557Z,2.9
2018-02-05T10:48:24.434Z,2.94
2018-02-05T10:49:24.572Z,2.97
2018-02-05T10:50:24.565Z,3.01
2018-02-05T10:51:24.462Z,3
2018-02-05T10:52:24.579Z,2.99
2018-02-05T10:53:24.479Z,2.99
2018-02-05T10:54:24.519Z,3
2018-02-05T10:55:24.502Z,2.94
2018-02-05T10:56:24.636Z,2.99
2018-02-05T10:57:24.457Z,2.99
2018-02-05T10:58:24.478Z,3.01
2018-02-05T10:59:24.518Z,3.01
2018-02-05T11:00:24.559Z,3.06
2018-02-05T11:01:24.532Z,3.03
2018-02-05T11:02:24.535Z,3.1
2018-02-05T11:03:25.324Z,3.12
2018-02-05T11:04:24.474Z,3.12
2018-02-05T11:05:24.643Z,3.15
2018-02-05T11:06:24.611Z,3.14
2018-02-05T11:07:24.481Z,3.12
2018-02-05T11:08:24.540Z,3.17
2018-02-05T11:09:24.522Z,3.2
2018-02-05T11:10:24.542Z,3.25
2018-02-05T11:11:24.557Z,3.29
2018-02-05T11:12:24.405Z,3.31
2018-02-05T11:13:24.513Z,3.27
2018-02-05T11:14:24.541Z,3.34
2018-02-05T11:15:24.506Z,3.34
2018-02-05T11:16:24.513Z,3.34
2018-02-05T11:17:24.497Z,3.32
2018-02-05T11:18:24.467Z,3.32
2018-02-05T11:19:24.509Z,3.39
2018-02-05T11:20:24.448Z,3.44
2018-02-05T11:21:24.499Z,3.48
2018-02-05T11:22:24.459Z,3.48
2018-02-05T11:23:24.681Z,3.39
2018-02-05T11:24:24.543Z,3.44
2018-02-05T11:25:24.574Z,3.49
2018-02-05T11:26:24.645Z,3.54
2018-02-05T11:27:24.486Z,3.52
2018-02-05T11:28:24.613Z,3.61
2018-02-05T11:29:24.627Z,3.63
2018-02-05T11:30:24.527Z,3.66
2018-02-05T11:31:24.429Z,3.55
2018-02-05T11:32:24.590Z,3.56
2018-02-05T11:33:24.526Z,3.63
2018-02-05T11:34:24.606Z,3.66
2018-02-05T11:35:24.422Z,3.69
2018-02-05T11:36:24.619Z,3.76
2018-02-05T11:37:24.790Z,3.79
2018-02-05T11:38:24.392Z,3.8
2018-02-05T11:39:24.939Z,3.89
2018-02-05T11:40:24.476Z,3.9
2018-02-05T11:41:24.492Z,3.9
2018-02-05T11:42:24.474Z,3.79
2018-02-05T11:43:24.424Z,3.86
2018-02-05T11:44:24.543Z,3.93
2018-02-05T11:45:24.473Z,3.98
2018-02-05T11:46:24.634Z,3.97
2018-02-05T11:47:25.694Z,4.02
2018-02-05T11:48:25.532Z,4.05
2018-02-05T11:49:25.433Z,4.1
2018-02-05T11:50:25.373Z,4.05
2018-02-05T11:51:25.462Z,4.14
2018-02-05T11:52:25.561Z,4.18
2018-02-05T11:53:25.544Z,4.11
2018-02-05T11:54:25.508Z,4.05
2018-02-05T11:55:25.520Z,4.05
2018-02-05T11:56:25.654Z,4.01
2018-02-05T11:57:25.898Z,3.98
2018-02-05T11:58:25.861Z,4.04
2018-02-05T11:59:25.493Z,4.04
2018-02-05T12:00:25.980Z,4.11
2018-02-05T12:01:26.281Z,4.12
2018-02-05T12:02:25.503Z,4.17
2018-02-05T12:03:25.797Z,4.22
2018-02-05T12:04:25.389Z,4.25
2018-02-05T12:05:25.613Z,4.15
2018-02-05T12:06:25.680Z,4.18
2018-02-05T12:07:25.496Z,4.21
2018-02-05T12:08:25.322Z,4.29
2018-02-05T12:09:26.018Z,4.29
2018-02-05T12:10:25.517Z,4.29
2018-02-05T12:11:25.963Z,4.29
2018-02-05T12:12:25.473Z,4.32
2018-02-05T12:13:25.303Z,4.38
2018-02-05T12:14:25.238Z,4.42
2018-02-05T12:15:25.206Z,4.4
2018-02-05T12:16:25.348Z,4.46
2018-02-05T12:17:25.198Z,4.49
2018-02-05T12:18:25.321Z,4.55
2018-02-05T12:19:25.258Z,4.49
2018-02-05T12:20:25.304Z,4.56
2018-02-05T12:21:25.616Z,4.49
2018-02-05T12:22:25.614Z,4.57
2018-02-05T12:23:25.456Z,4.62
2018-02-05T12:24:25.610Z,4.35
2018-02-05T12:25:25.460Z,4.39
2018-02-05T12:26:25.659Z,4.36
2018-02-05T12:27:25.873Z,4.42
2018-02-05T12:28:25.910Z,4.45
2018-02-05T12:29:25.806Z,4.45
2018-02-05T12:30:25.983Z,4.52
2018-02-05T12:31:25.274Z,4.6
2018-02-05T12:32:25.287Z,4.59
2018-02-05T12:33:25.392Z,4.56
2018-02-05T12:34:25.246Z,4.52
2018-02-05T12:35:25.369Z,4.56
2018-02-05T12:36:25.658Z,4.59
2018-02-05T12:37:25.409Z,4.66
2018-02-05T12:38:25.526Z,4.6
2018-02-05T12:39:25.628Z,4.59
2018-02-05T12:40:25.688Z,4.65
2018-02-05T12:41:26.008Z,4.66
2018-02-05T12:42:25.745Z,4.73
2018-02-05T12:43:25.694Z,4.72
2018-02-05T12:44:25.882Z,4.76
2018-02-05T12:45:26.030Z,4.83
2018-02-05T12:46:24.795Z,4.83
2018-02-05T12:47:25.249Z,4.84
2018-02-05T12:48:26.202Z,4.84
2018-02-05T12:49:26.081Z,4.86
2018-02-05T12:50:26.196Z,4.95
2018-02-05T12:51:26.503Z,4.91
2018-02-05T12:52:26.275Z,4.95
2018-02-05T12:53:26.085Z,4.93
2018-02-05T12:54:25.356Z,4.91
2018-02-05T12:55:25.346Z,4.93
2018-02-05T12:56:25.410Z,4.9
2018-02-05T12:57:25.203Z,4.95
2018-02-05T12:58:26.212Z,5.04
2018-02-05T12:59:26.076Z,5.1
2018-02-05T13:00:25.941Z,5.12
2018-02-05T13:01:25.539Z,5.07
2018-02-05T13:02:26.050Z,5.02
2018-02-05T13:03:26.161Z,5.02
2018-02-05T13:04:26.267Z,5.04
2018-02-05T13:05:26.015Z,5.01
2018-02-05T13:06:25.412Z,5.04
2018-02-05T13:07:26.324Z,5.02
2018-02-05T13:08:25.730Z,4.98
2018-02-05T13:09:25.585Z,4.98
2018-02-05T13:10:25.414Z,5.02
2018-02-05T13:11:26.090Z,5
2018-02-05T13:12:24.840Z,4.93
2018-02-05T13:13:25.631Z,4.9
2018-02-05T13:14:25.419Z,4.86
2018-02-05T13:15:25.993Z,4.77
2018-02-05T13:16:25.699Z,4.8
2018-02-05T13:17:25.556Z,4.81
2018-02-05T13:18:25.830Z,4.79
2018-02-05T13:19:25.845Z,4.86
2018-02-05T13:20:25.788Z,4.81
2018-02-05T13:21:25.016Z,4.86
2018-02-05T13:22:25.565Z,4.8
2018-02-05T13:23:25.576Z,4.77
2018-02-05T13:24:25.447Z,4.76
2018-02-05T13:25:25.736Z,4.81
2018-02-05T13:26:25.712Z,4.74
2018-02-05T13:27:26.058Z,4.77
2018-02-05T13:28:25.840Z,4.83
2018-02-05T13:29:26.038Z,4.79
2018-02-05T13:30:26.174Z,4.79
2018-02-05T13:31:26.095Z,4.79